Terminal Aerodrome Forecast
Issued by NWS

Home | Current Version | Previous Version | Text Only | Print | Product List | Glossary Off
Versions: 1 2 3 4 5 6 7 8 9 10 11 12 13

000
FTUS43 KMPX 031120
TAFAXN
TAF
KAXN 031120Z 0312/0412 29004KT P6SM SKC
     FM031400 31012G19KT P6SM SKC
     FM040000 32005KT P6SM SKC=

USA.gov is the U.S. government's official web portal to all federal, state and local government web resources and services.